createdAt,value
2022-09-26T00:01:35.518Z,7.43
2022-09-26T00:04:07.015Z,5.93
2022-09-26T00:06:34.625Z,4.32
2022-09-26T00:09:01.968Z,4.10
2022-09-26T00:11:31.778Z,4.32
2022-09-26T00:14:02.686Z,2.55
2022-09-26T00:16:30.066Z,5.72
2022-09-26T00:18:59.143Z,4.28
2022-09-26T00:21:28.374Z,4.68
2022-09-26T00:23:55.989Z,3.80
2022-09-26T00:26:25.204Z,2.78
2022-09-26T00:28:53.339Z,8.00
2022-09-26T00:31:24.927Z,3.33
2022-09-26T00:33:52.904Z,3.10
2022-09-26T00:36:20.748Z,3.80
2022-09-26T00:38:48.350Z,3.65
2022-09-26T00:41:16.324Z,6.15
2022-09-26T00:43:46.689Z,3.53
2022-09-26T00:46:32.220Z,2.58
2022-09-26T00:49:23.388Z,4.80
2022-09-26T00:52:03.329Z,2.22
2022-09-26T00:54:31.827Z,1.90
2022-09-26T00:57:05.604Z,3.30
2022-09-26T00:59:40.866Z,4.50
2022-09-26T01:02:09.259Z,2.00
2022-09-26T01:04:39.368Z,4.50
2022-09-26T01:07:12.055Z,2.97
2022-09-26T01:09:39.711Z,3.65
2022-09-26T01:12:08.908Z,2.33
2022-09-26T01:14:38.101Z,2.70
2022-09-26T01:17:05.807Z,4.43
2022-09-26T01:19:47.889Z,1.38
2022-09-26T01:22:52.610Z,1.85
2022-09-26T01:25:41.364Z,2.85
2022-09-26T01:28:17.466Z,2.15
2022-09-26T01:30:51.697Z,3.50
2022-09-26T01:33:27.717Z,3.05
2022-09-26T01:36:19.755Z,5.10
2022-09-26T01:39:03.651Z,2.55
2022-09-26T01:41:54.089Z,2.65
2022-09-26T01:44:38.691Z,3.47
2022-09-26T01:47:31.741Z,3.22
2022-09-26T01:50:33.801Z,3.22
2022-09-26T01:53:13.970Z,2.03
2022-09-26T01:55:47.200Z,3.28
2022-09-26T01:58:18.710Z,2.63
2022-09-26T02:00:49.014Z,3.43
2022-09-26T02:03:25.975Z,2.92
2022-09-26T02:06:02.716Z,2.53
2022-09-26T02:08:42.865Z,2.88
2022-09-26T02:11:15.192Z,3.65
2022-09-26T02:14:06.654Z,2.37
2022-09-26T02:16:46.836Z,2.78
2022-09-26T02:19:24.141Z,3.50
2022-09-26T02:21:51.758Z,2.13
2022-09-26T02:24:19.130Z,2.97
2022-09-26T02:26:46.690Z,1.35
2022-09-26T02:29:14.814Z,4.32
2022-09-26T02:31:51.648Z,4.25
2022-09-26T02:34:19.227Z,3.40
2022-09-26T02:36:46.427Z,3.15
2022-09-26T02:39:14.097Z,4.30
2022-09-26T02:41:53.794Z,3.38
2022-09-26T02:44:36.092Z,2.65
2022-09-26T02:47:24.554Z,2.85
2022-09-26T02:50:18.063Z,2.25
2022-09-26T02:53:11.414Z,1.33
2022-09-26T02:56:04.817Z,2.75
2022-09-26T02:58:44.633Z,4.15
2022-09-26T03:01:47.245Z,4.50
2022-09-26T03:04:33.611Z,5.10
2022-09-26T03:07:07.212Z,6.40
2022-09-26T03:09:37.069Z,4.22
2022-09-26T03:12:06.714Z,7.68
2022-09-26T03:14:36.420Z,5.38
2022-09-26T03:17:04.485Z,7.60
2022-09-26T03:20:01.394Z,2.83
2022-09-26T03:22:30.570Z,2.65
2022-09-26T03:25:01.930Z,2.33
2022-09-26T03:27:31.385Z,3.30
2022-09-26T03:29:59.458Z,4.63
2022-09-26T03:32:29.671Z,2.83
2022-09-26T03:34:57.347Z,3.15
2022-09-26T03:37:24.520Z,1.63
2022-09-26T03:39:51.792Z,2.88
2022-09-26T03:42:26.073Z,4.32
2022-09-26T03:44:54.834Z,3.97
2022-09-26T03:47:42.061Z,6.38
2022-09-26T03:50:09.741Z,2.35
2022-09-26T03:52:36.864Z,3.75
2022-09-26T03:55:04.995Z,2.47
2022-09-26T03:57:32.125Z,4.80
2022-09-26T04:00:11.997Z,3.47
2022-09-26T04:02:46.425Z,1.88
2022-09-26T04:05:33.444Z,6.50
2022-09-26T04:08:04.451Z,3.40
2022-09-26T04:10:31.918Z,6.60
2022-09-26T04:12:59.033Z,3.60
2022-09-26T04:15:26.128Z,2.38
2022-09-26T04:18:04.595Z,3.55
2022-09-26T04:20:32.103Z,4.47
2022-09-26T04:23:00.366Z,5.15
2022-09-26T04:25:27.505Z,6.70
2022-09-26T04:27:54.638Z,2.45
2022-09-26T04:30:22.320Z,3.33
2022-09-26T04:32:56.566Z,2.92
2022-09-26T04:35:25.416Z,3.22
2022-09-26T04:37:52.734Z,4.93
2022-09-26T04:40:20.134Z,2.55
2022-09-26T04:42:59.041Z,2.17
2022-09-26T04:45:27.009Z,1.45
2022-09-26T04:47:54.370Z,3.13
2022-09-26T04:50:28.944Z,3.95
2022-09-26T04:53:06.891Z,3.20
2022-09-26T04:55:38.144Z,1.40
2022-09-26T04:58:05.224Z,2.92
2022-09-26T05:00:32.538Z,3.90
2022-09-26T05:03:05.131Z,3.30
2022-09-26T05:05:33.210Z,5.13
2022-09-26T05:08:00.390Z,4.45
2022-09-26T05:10:27.633Z,1.70
2022-09-26T05:15:27.105Z,4.13
2022-09-26T05:17:59.527Z,2.78
2022-09-26T05:20:29.447Z,1.60
2022-09-26T05:22:59.841Z,3.40
2022-09-26T05:25:48.307Z,3.92
2022-09-26T05:28:16.034Z,1.75
2022-09-26T05:30:43.531Z,1.55
2022-09-26T05:33:13.162Z,2.65
2022-09-26T05:35:40.611Z,2.17
2022-09-26T05:38:07.772Z,2.65
2022-09-26T05:40:57.351Z,1.63
2022-09-26T05:43:31.494Z,2.53
2022-09-26T05:46:00.148Z,6.15
2022-09-26T05:48:35.392Z,1.65
2022-09-26T05:51:16.871Z,1.25
2022-09-26T05:53:46.265Z,4.95
2022-09-26T05:56:19.294Z,1.35
2022-09-26T05:58:58.933Z,1.08
2022-09-26T06:01:52.471Z,2.95
2022-09-26T06:04:37.855Z,1.80
2022-09-26T06:07:40.654Z,1.95
2022-09-26T06:10:13.422Z,4.57
2022-09-26T06:12:53.541Z,0.75
2022-09-26T06:15:21.270Z,3.38
2022-09-26T06:17:48.485Z,1.92
2022-09-26T06:20:16.239Z,1.77
2022-09-26T06:22:44.004Z,1.80
2022-09-26T06:25:12.306Z,0.77
2022-09-26T06:27:40.374Z,0.77
2022-09-26T06:30:11.219Z,3.00
2022-09-26T06:32:39.267Z,2.58
2022-09-26T06:35:33.263Z,2.17
2022-09-26T06:38:10.053Z,1.65
2022-09-26T06:40:37.393Z,3.58
2022-09-26T06:43:05.577Z,4.00
2022-09-26T06:45:51.166Z,1.30
2022-09-26T06:48:29.920Z,3.90
2022-09-26T06:51:00.319Z,2.45
2022-09-26T06:53:29.482Z,5.30
2022-09-26T06:55:59.554Z,2.85
2022-09-26T06:58:27.749Z,2.13
2022-09-26T07:01:02.733Z,1.48
2022-09-26T07:03:45.586Z,5.35
2022-09-26T07:06:27.267Z,3.10
2022-09-26T07:09:06.564Z,1.75
2022-09-26T07:12:14.617Z,3.30
2022-09-26T07:14:43.076Z,2.90
2022-09-26T07:17:23.409Z,0.65
2022-09-26T07:20:17.533Z,3.22
2022-09-26T07:23:06.177Z,3.75
2022-09-26T07:25:33.599Z,3.70
2022-09-26T07:28:02.527Z,3.33
2022-09-26T07:30:44.130Z,2.30
2022-09-26T07:33:37.018Z,1.25
2022-09-26T07:36:09.764Z,2.35
2022-09-26T07:38:37.428Z,2.88
2022-09-26T07:41:10.869Z,3.28
2022-09-26T07:46:44.701Z,3.15
2022-09-26T07:49:30.713Z,2.63
2022-09-26T07:52:00.673Z,4.45
2022-09-26T07:54:44.033Z,1.17
2022-09-26T07:57:17.113Z,2.55
2022-09-26T08:00:08.604Z,2.63
2022-09-26T08:02:46.921Z,5.68
2022-09-26T08:05:20.148Z,2.22
2022-09-26T08:07:49.413Z,4.30
2022-09-26T08:10:36.657Z,7.15
2022-09-26T08:13:22.113Z,2.80
2022-09-26T08:16:11.723Z,3.90
2022-09-26T08:18:43.201Z,5.10
2022-09-26T08:21:10.433Z,6.88
2022-09-26T08:23:38.656Z,6.43
2022-09-26T08:26:24.168Z,6.68
2022-09-26T08:28:59.030Z,6.97
2022-09-26T08:31:26.928Z,6.03
2022-09-26T08:33:54.475Z,11.00
2022-09-26T08:36:23.393Z,9.15
2022-09-26T08:38:59.672Z,6.88
2022-09-26T08:42:17.726Z,10.50
2022-09-26T08:47:49.368Z,7.07
2022-09-26T08:50:52.053Z,10.82
2022-09-26T08:55:55.661Z,13.05
2022-09-26T08:58:40.561Z,13.07
2022-09-26T09:01:17.800Z,15.40
2022-09-26T09:04:18.114Z,9.60
2022-09-26T09:06:45.725Z,8.60
2022-09-26T09:09:17.835Z,13.48
2022-09-26T09:12:08.699Z,12.45
2022-09-26T09:14:44.765Z,13.05
2022-09-26T09:17:53.630Z,12.35
2022-09-26T09:20:44.034Z,16.48
2022-09-26T09:23:28.534Z,19.55
2022-09-26T09:27:52.284Z,20.40
2022-09-26T09:29:10.499Z,17.95
2022-09-26T09:31:44.900Z,23.00
2022-09-26T09:34:41.739Z,17.35
2022-09-26T09:37:46.797Z,18.85
2022-09-26T09:40:34.213Z,21.60
2022-09-26T09:43:27.204Z,18.13
2022-09-26T09:46:02.099Z,26.92
2022-09-26T09:48:29.540Z,15.32
2022-09-26T09:51:36.854Z,17.40
2022-09-26T09:54:09.658Z,19.17
2022-09-26T09:57:08.289Z,22.58
2022-09-26T09:59:38.742Z,18.70
2022-09-26T10:03:06.167Z,17.27
2022-09-26T10:05:36.629Z,15.80
2022-09-26T10:08:09.845Z,16.95
2022-09-26T10:11:13.003Z,15.87
2022-09-26T10:14:07.627Z,18.58
2022-09-26T10:17:11.646Z,22.40
2022-09-26T10:19:45.181Z,23.25
2022-09-26T10:22:19.825Z,20.92
2022-09-26T10:24:48.290Z,20.05
2022-09-26T10:27:32.193Z,16.02
2022-09-26T10:30:01.652Z,22.83
2022-09-26T10:32:29.973Z,17.63
2022-09-26T10:35:30.119Z,26.13
2022-09-26T10:38:03.497Z,20.25
2022-09-26T10:40:45.454Z,22.20
2022-09-26T10:43:20.951Z,15.68
2022-09-26T10:45:55.093Z,29.65
2022-09-26T10:48:52.306Z,19.50
2022-09-26T10:51:42.757Z,23.58
2022-09-26T10:54:21.628Z,19.80
2022-09-26T10:56:59.598Z,15.85
2022-09-26T10:59:32.428Z,13.60
2022-09-26T11:02:02.627Z,20.60
2022-09-26T11:04:52.617Z,17.15
2022-09-26T11:07:43.034Z,15.90
2022-09-26T11:10:25.763Z,14.63
2022-09-26T11:13:24.320Z,15.50
2022-09-26T11:16:02.493Z,17.42
2022-09-26T11:18:48.358Z,15.70
2022-09-26T11:21:38.143Z,16.20
2022-09-26T11:24:37.493Z,14.73
2022-09-26T11:27:30.545Z,11.93
2022-09-26T11:32:33.794Z,12.00
2022-09-26T11:35:33.379Z,17.05
2022-09-26T11:38:05.553Z,11.50
2022-09-26T11:40:51.218Z,12.80
2022-09-26T11:43:46.471Z,8.90
2022-09-26T11:47:18.380Z,7.90
2022-09-26T11:49:55.519Z,13.02
2022-09-26T11:52:52.063Z,9.15
2022-09-26T11:55:52.183Z,7.35
2022-09-26T11:58:43.650Z,9.93
2022-09-26T12:01:30.663Z,11.75
2022-09-26T12:04:38.888Z,9.02
2022-09-26T12:07:18.106Z,16.05
2022-09-26T12:10:14.436Z,10.68
2022-09-26T12:12:41.930Z,7.35
2022-09-26T12:15:21.995Z,5.22
2022-09-26T12:18:06.517Z,8.43
2022-09-26T12:20:56.914Z,6.10
2022-09-26T12:23:38.043Z,8.90
2022-09-26T12:26:34.738Z,11.05
2022-09-26T12:29:31.578Z,8.43
2022-09-26T12:32:14.894Z,9.00
2022-09-26T12:35:23.477Z,3.83
2022-09-26T12:38:15.847Z,2.55
2022-09-26T12:40:58.064Z,2.22
2022-09-26T12:43:57.290Z,1.80
2022-09-26T12:47:01.167Z,1.70
2022-09-26T12:49:58.566Z,7.95
2022-09-26T12:52:34.611Z,4.55
2022-09-26T12:55:43.909Z,4.03
2022-09-26T12:58:34.329Z,3.90
2022-09-26T13:01:20.230Z,3.15
2022-09-26T13:04:24.521Z,8.32
2022-09-26T13:07:17.963Z,4.28
2022-09-26T13:10:03.480Z,4.80
2022-09-26T13:12:40.622Z,6.80
2022-09-26T13:15:26.569Z,6.70
2022-09-26T13:18:09.259Z,7.60
2022-09-26T13:20:45.053Z,10.15
2022-09-26T13:23:14.881Z,4.18
2022-09-26T13:25:50.051Z,5.13
2022-09-26T13:28:25.825Z,5.40
2022-09-26T13:31:26.450Z,4.03
2022-09-26T13:34:18.077Z,4.97
2022-09-26T13:36:46.285Z,5.25
2022-09-26T13:39:35.037Z,3.92
2022-09-26T13:42:13.836Z,5.38
2022-09-26T13:45:19.328Z,3.50
2022-09-26T13:48:05.742Z,6.47
2022-09-26T13:50:47.833Z,4.30
2022-09-26T13:53:38.462Z,5.97
2022-09-26T13:56:30.243Z,3.42
2022-09-26T13:59:32.471Z,6.90
2022-09-26T14:02:19.501Z,6.05
2022-09-26T14:04:54.636Z,9.88
2022-09-26T14:08:01.139Z,4.38
2022-09-26T14:10:40.082Z,7.15
2022-09-26T14:13:10.211Z,5.35
2022-09-26T14:15:49.625Z,3.92
2022-09-26T14:18:39.957Z,4.90
2022-09-26T14:21:19.357Z,5.97
2022-09-26T14:23:49.183Z,6.13
2022-09-26T14:26:28.136Z,10.43
2022-09-26T14:29:11.152Z,5.15
2022-09-26T14:31:40.011Z,5.18
2022-09-26T14:34:26.902Z,6.60
2022-09-26T14:37:01.730Z,8.88
2022-09-26T14:39:44.498Z,8.90
2022-09-26T14:42:27.085Z,6.30
2022-09-26T14:48:37.145Z,7.65
2022-09-26T14:51:12.656Z,5.18
2022-09-26T14:53:59.026Z,4.80
2022-09-26T14:56:56.990Z,4.40
2022-09-26T14:59:58.623Z,9.23
2022-09-26T15:10:40.221Z,11.43
2022-09-26T15:13:07.837Z,3.80
2022-09-26T15:16:09.913Z,6.75
2022-09-26T15:18:55.912Z,6.55
2022-09-26T15:21:33.407Z,8.30
2022-09-26T15:24:04.010Z,9.23
2022-09-26T15:26:35.170Z,8.45
2022-09-26T15:29:06.899Z,5.80
2022-09-26T15:31:43.810Z,6.68
2022-09-26T15:34:24.209Z,5.78
2022-09-26T15:36:59.415Z,5.65
2022-09-26T15:39:33.029Z,6.28
2022-09-26T15:42:39.577Z,4.90
2022-09-26T15:45:18.831Z,8.93
2022-09-26T15:47:46.050Z,6.10
2022-09-26T15:50:16.183Z,6.35
2022-09-26T15:53:17.601Z,9.32
2022-09-26T15:56:11.257Z,6.13
2022-09-26T15:58:50.351Z,5.55
2022-09-26T16:01:19.920Z,8.07
2022-09-26T16:03:55.689Z,10.18
2022-09-26T16:06:28.266Z,9.50
2022-09-26T16:09:05.503Z,8.15
2022-09-26T16:11:33.816Z,11.98
2022-09-26T16:14:01.431Z,10.30
2022-09-26T16:16:34.508Z,4.60
2022-09-26T16:19:05.562Z,6.25
2022-09-26T16:21:36.642Z,4.97
2022-09-26T16:24:34.533Z,6.70
2022-09-26T16:27:02.292Z,9.30
2022-09-26T16:29:34.165Z,6.30
2022-09-26T16:32:05.397Z,10.00
2022-09-26T16:34:32.883Z,12.68
2022-09-26T16:37:00.204Z,7.15
2022-09-26T16:39:30.209Z,9.93
2022-09-26T16:42:05.859Z,5.97
2022-09-26T16:44:41.319Z,8.95
2022-09-26T16:47:41.817Z,4.07
2022-09-26T16:50:33.787Z,8.65
2022-09-26T16:53:06.851Z,1.10
2022-09-26T16:55:37.596Z,5.63
2022-09-26T16:58:06.187Z,1.98
2022-09-26T17:00:53.771Z,4.72
2022-09-26T17:03:26.888Z,1.98
2022-09-26T17:05:55.821Z,5.15
2022-09-26T17:08:27.076Z,5.57
2022-09-26T17:10:56.519Z,4.68
2022-09-26T17:13:27.623Z,4.97
2022-09-26T17:15:57.538Z,3.08
2022-09-26T17:18:29.491Z,4.00
2022-09-26T17:20:59.267Z,2.25
2022-09-26T17:23:39.835Z,3.38
2022-09-26T17:26:12.253Z,3.58
2022-09-26T17:28:42.741Z,3.83
2022-09-26T17:31:19.652Z,4.82
2022-09-26T17:33:53.616Z,4.95
2022-09-26T17:36:28.083Z,5.07
2022-09-26T17:38:59.572Z,4.97
2022-09-26T17:41:29.896Z,4.18
2022-09-26T17:44:00.407Z,2.92
2022-09-26T17:46:28.082Z,2.17
2022-09-26T17:48:56.371Z,5.45
2022-09-26T17:51:24.252Z,6.32
2022-09-26T17:53:52.599Z,4.22
2022-09-26T17:56:20.521Z,3.45
2022-09-26T17:58:49.095Z,5.00
2022-09-26T18:01:28.065Z,3.15
2022-09-26T18:04:00.996Z,3.47
2022-09-26T18:06:31.630Z,4.93
2022-09-26T18:09:10.356Z,2.97
2022-09-26T18:11:41.918Z,4.57
2022-09-26T18:14:16.338Z,5.45
2022-09-26T18:16:44.978Z,2.65
2022-09-26T18:19:12.337Z,1.55
2022-09-26T18:21:40.294Z,4.15
2022-09-26T18:24:18.635Z,1.75
2022-09-26T18:26:50.933Z,4.22
2022-09-26T18:29:30.984Z,4.93
2022-09-26T18:31:59.788Z,3.08
2022-09-26T18:34:27.060Z,3.00
2022-09-26T18:36:57.150Z,4.00
2022-09-26T18:39:25.257Z,3.50
2022-09-26T18:42:01.122Z,4.65
2022-09-26T18:44:29.951Z,5.55
2022-09-26T18:47:01.701Z,4.50
2022-09-26T18:49:33.567Z,4.97
2022-09-26T18:52:01.655Z,4.85
2022-09-26T18:54:31.332Z,5.82
2022-09-26T18:57:16.901Z,5.38
2022-09-26T18:59:45.503Z,6.40
2022-09-26T19:02:21.819Z,6.55
2022-09-26T19:04:50.031Z,4.43
2022-09-26T19:07:21.203Z,6.88
2022-09-26T19:09:49.637Z,7.18
2022-09-26T19:12:17.156Z,7.97
2022-09-26T19:14:44.654Z,6.70
2022-09-26T19:17:12.575Z,5.13
2022-09-26T19:19:40.193Z,4.63
2022-09-26T19:22:17.498Z,8.70
2022-09-26T19:24:51.385Z,6.35
2022-09-26T19:27:22.644Z,5.90
2022-09-26T19:29:55.344Z,6.95
2022-09-26T19:32:30.963Z,5.70
2022-09-26T19:35:01.959Z,6.22
2022-09-26T19:37:29.067Z,7.97
2022-09-26T19:42:39.450Z,4.07
2022-09-26T19:45:07.480Z,8.60
2022-09-26T19:47:39.897Z,3.58
2022-09-26T19:50:17.891Z,2.67
2022-09-26T19:52:45.513Z,6.93
2022-09-26T19:55:24.414Z,6.18
2022-09-26T19:57:53.592Z,4.20
2022-09-26T20:00:20.886Z,4.53
2022-09-26T20:02:51.511Z,3.97
2022-09-26T20:05:24.650Z,5.75
2022-09-26T20:07:52.514Z,5.93
2022-09-26T20:10:25.515Z,5.35
2022-09-26T20:12:53.969Z,4.75
2022-09-26T20:15:21.347Z,2.58
2022-09-26T20:17:49.392Z,2.53
2022-09-26T20:20:22.634Z,3.72
2022-09-26T20:22:51.534Z,6.90
2022-09-26T20:25:31.395Z,4.47
2022-09-26T20:28:01.823Z,6.38
2022-09-26T20:30:47.463Z,6.22
2022-09-26T20:33:14.741Z,3.47
2022-09-26T20:35:46.115Z,2.92
2022-09-26T20:38:40.544Z,3.90
2022-09-26T20:41:23.207Z,5.95
2022-09-26T20:44:01.176Z,2.80
2022-09-26T20:46:39.599Z,4.95
2022-09-26T20:49:12.899Z,4.45
2022-09-26T20:51:43.893Z,3.72
2022-09-26T20:54:29.839Z,6.97
2022-09-26T20:56:58.275Z,3.50
2022-09-26T20:59:26.164Z,2.53
2022-09-26T21:01:54.568Z,4.90
2022-09-26T21:04:35.551Z,7.55
2022-09-26T21:07:08.778Z,5.13
2022-09-26T21:09:36.009Z,5.95
2022-09-26T21:12:08.964Z,5.88
2022-09-26T21:14:36.027Z,3.60
2022-09-26T21:17:03.456Z,2.67
2022-09-26T21:19:36.452Z,5.03
2022-09-26T21:22:19.464Z,6.05
2022-09-26T21:24:52.314Z,3.72
2022-09-26T21:27:20.700Z,3.17
2022-09-26T21:29:47.773Z,3.05
2022-09-26T21:32:21.644Z,5.50
2022-09-26T21:34:58.152Z,2.60
2022-09-26T21:37:25.637Z,4.40
2022-09-26T21:39:55.812Z,2.13
2022-09-26T21:42:25.956Z,5.20
2022-09-26T21:44:59.431Z,1.05
2022-09-26T21:47:28.096Z,2.05
2022-09-26T21:49:55.428Z,3.25
2022-09-26T21:52:28.601Z,2.80
2022-09-26T21:54:58.989Z,3.47
2022-09-26T21:57:30.411Z,1.15
2022-09-26T21:59:58.649Z,3.60
2022-09-26T22:02:26.656Z,2.17
2022-09-26T22:04:53.837Z,4.13
2022-09-26T22:07:21.099Z,2.20
2022-09-26T22:09:48.248Z,4.40
2022-09-26T22:12:15.400Z,0.95
2022-09-26T22:14:42.674Z,3.20
2022-09-26T22:17:09.839Z,1.35
2022-09-26T22:19:37.170Z,3.13
2022-09-26T22:22:04.816Z,1.10
2022-09-26T22:24:33.047Z,2.45
2022-09-26T22:27:00.167Z,1.95
2022-09-26T22:29:27.762Z,2.70
2022-09-26T22:31:54.863Z,3.15
2022-09-26T22:34:26.410Z,2.47
2022-09-26T22:36:53.540Z,2.92
2022-09-26T22:39:20.700Z,4.28
2022-09-26T22:41:47.849Z,3.00
2022-09-26T22:44:15.046Z,3.85
2022-09-26T22:46:42.465Z,5.00
2022-09-26T22:49:09.906Z,3.30
2022-09-26T22:51:37.249Z,3.40
2022-09-26T22:54:05.685Z,4.15
2022-09-26T22:56:32.771Z,3.30
2022-09-26T22:59:00.171Z,5.20
2022-09-26T23:01:28.635Z,3.13
2022-09-26T23:03:57.898Z,1.80
2022-09-26T23:06:25.441Z,4.35
2022-09-26T23:08:52.976Z,4.88
2022-09-26T23:11:20.529Z,2.42
2022-09-26T23:13:50.280Z,2.05
2022-09-26T23:16:23.553Z,5.97
2022-09-26T23:18:51.710Z,3.58
2022-09-26T23:21:24.049Z,2.60
2022-09-26T23:26:23.772Z,3.70
2022-09-26T23:28:52.285Z,5.60
2022-09-26T23:31:21.203Z,5.20
2022-09-26T23:33:49.021Z,5.38
2022-09-26T23:36:16.432Z,7.15
2022-09-26T23:38:43.865Z,5.65
2022-09-26T23:41:12.426Z,3.72
2022-09-26T23:43:40.514Z,3.03
2022-09-26T23:46:08.374Z,2.30
2022-09-26T23:48:36.260Z,5.68
2022-09-26T23:51:06.369Z,3.60
2022-09-26T23:53:34.032Z,4.60
2022-09-26T23:56:06.327Z,6.85
